createdAt,value
2018-08-06T00:01:08.391Z,19.91
2018-08-06T00:06:13.522Z,19.93
2018-08-06T00:11:17.723Z,20.03
2018-08-06T00:16:26.876Z,19.96
2018-08-06T00:21:31.361Z,19.83
2018-08-06T00:26:35.989Z,19.95
2018-08-06T00:31:40.487Z,19.90
2018-08-06T00:36:49.559Z,19.85
2018-08-06T00:41:54.296Z,19.79
2018-08-06T00:46:58.593Z,19.68
2018-08-06T00:52:04.995Z,19.63
2018-08-06T00:57:09.312Z,19.46
2018-08-06T01:02:13.476Z,19.48
2018-08-06T01:07:18.017Z,19.50
2018-08-06T01:12:22.131Z,19.38
2018-08-06T01:17:33.451Z,19.11
2018-08-06T01:22:38.780Z,18.84
2018-08-06T01:27:45.560Z,18.86
2018-08-06T01:32:49.942Z,18.90
2018-08-06T01:37:54.974Z,18.70
2018-08-06T01:42:59.254Z,18.89
2018-08-06T01:48:03.528Z,18.94
2018-08-06T01:53:08.422Z,18.81
2018-08-06T01:58:14.863Z,18.63
2018-08-06T02:03:19.529Z,18.61
2018-08-06T02:08:25.628Z,18.55
2018-08-06T02:13:29.700Z,18.46
2018-08-06T02:18:36.145Z,18.21
2018-08-06T02:23:40.236Z,18.33
2018-08-06T02:28:44.671Z,18.30
2018-08-06T02:33:51.576Z,18.36
2018-08-06T02:38:57.418Z,18.31
2018-08-06T02:44:01.781Z,18.24
2018-08-06T02:49:05.864Z,18.18
2018-08-06T02:54:10.271Z,18.09
2018-08-06T02:59:14.484Z,18.05
2018-08-06T03:04:19.135Z,17.98
2018-08-06T03:09:24.134Z,17.93
2018-08-06T03:14:32.865Z,17.88
2018-08-06T03:19:37.251Z,17.82
2018-08-06T03:24:43.217Z,17.74
2018-08-06T03:29:47.258Z,17.57
2018-08-06T03:34:51.605Z,17.54
2018-08-06T03:39:57.906Z,17.68
2018-08-06T03:45:06.351Z,17.64
2018-08-06T03:50:11.716Z,17.54
2018-08-06T03:55:16.011Z,17.54
2018-08-06T04:00:20.910Z,17.36
2018-08-06T04:05:25.312Z,17.19
2018-08-06T04:10:29.926Z,17.19
2018-08-06T04:15:37.956Z,17.36
2018-08-06T04:20:42.555Z,17.53
2018-08-06T04:25:47.028Z,17.36
2018-08-06T04:30:53.377Z,17.46
2018-08-06T04:35:57.530Z,17.61
2018-08-06T04:41:04.076Z,17.75
2018-08-06T04:46:10.287Z,17.63
2018-08-06T04:51:14.664Z,17.57
2018-08-06T04:56:19.659Z,17.65
2018-08-06T05:01:24.460Z,17.94
2018-08-06T05:06:28.865Z,17.98
2018-08-06T05:11:33.742Z,18.03
2018-08-06T05:16:38.629Z,18.12
2018-08-06T05:21:42.911Z,18.26
2018-08-06T05:26:47.219Z,18.34
2018-08-06T05:31:51.612Z,18.51
2018-08-06T05:36:56.357Z,18.68
2018-08-06T05:42:01.797Z,18.78
2018-08-06T05:47:06.022Z,18.87
2018-08-06T05:52:14.693Z,19.01
2018-08-06T05:57:19.113Z,19.02
2018-08-06T06:02:23.540Z,19.10
2018-08-06T06:07:29.143Z,19.19
2018-08-06T06:12:33.173Z,19.32
2018-08-06T06:17:36.701Z,19.36
2018-08-06T06:22:40.366Z,19.37
2018-08-06T06:27:44.435Z,19.56
2018-08-06T06:32:48.726Z,19.78
2018-08-06T06:37:53.411Z,19.92
2018-08-06T06:42:56.910Z,20.07
2018-08-06T06:48:00.979Z,20.21
2018-08-06T06:53:04.833Z,20.32
2018-08-06T06:58:08.368Z,20.43
2018-08-06T07:03:11.961Z,20.51
2018-08-06T07:08:16.165Z,20.58
2018-08-06T07:13:19.658Z,20.70
2018-08-06T07:18:23.231Z,20.85
2018-08-06T07:23:26.802Z,20.96
2018-08-06T07:28:30.371Z,21.04
2018-08-06T07:33:33.997Z,21.19
2018-08-06T07:38:37.970Z,21.32
2018-08-06T07:43:41.558Z,21.50
2018-08-06T07:48:45.314Z,21.70
2018-08-06T07:53:49.166Z,21.83
2018-08-06T07:58:54.417Z,21.86
2018-08-06T08:03:58.278Z,21.98
2018-08-06T08:09:01.955Z,21.77
2018-08-06T08:14:05.706Z,21.15
2018-08-06T08:19:10.046Z,20.88
2018-08-06T08:24:13.701Z,20.93
2018-08-06T08:29:17.550Z,21.03
2018-08-06T08:34:22.584Z,21.20
2018-08-06T08:39:26.198Z,21.52
2018-08-06T08:44:29.765Z,21.97
2018-08-06T08:49:33.479Z,22.27
2018-08-06T08:54:37.006Z,22.42
2018-08-06T08:59:40.617Z,22.56
2018-08-06T09:04:44.249Z,22.76
2018-08-06T09:09:47.842Z,22.95
2018-08-06T09:14:51.493Z,23.14
2018-08-06T09:19:55.708Z,23.33
2018-08-06T09:25:05.341Z,23.50
2018-08-06T09:30:15.274Z,23.51
2018-08-06T09:35:19.880Z,23.63
2018-08-06T09:40:24.134Z,23.78
2018-08-06T09:45:27.930Z,23.94
2018-08-06T09:50:31.758Z,23.92
2018-08-06T09:55:35.801Z,23.93
2018-08-06T10:00:41.306Z,23.93
2018-08-06T10:05:44.942Z,24.05
2018-08-06T10:10:49.201Z,24.29
2018-08-06T10:15:53.204Z,24.50
2018-08-06T10:20:56.809Z,24.72
2018-08-06T10:26:00.794Z,24.89
2018-08-06T10:31:04.460Z,25.06
2018-08-06T10:36:08.488Z,25.06
2018-08-06T10:41:12.434Z,25.08
2018-08-06T10:46:16.225Z,25.18
2018-08-06T10:51:19.922Z,25.16
2018-08-06T10:56:23.598Z,25.21
2018-08-06T11:01:27.314Z,25.37
2018-08-06T11:06:32.317Z,25.51
2018-08-06T11:11:36.007Z,25.77
2018-08-06T11:16:39.814Z,26.00
2018-08-06T11:21:43.467Z,26.14
2018-08-06T11:26:47.040Z,26.37
2018-08-06T11:31:50.644Z,26.63
2018-08-06T11:36:54.522Z,26.87
2018-08-06T11:41:57.966Z,27.26
2018-08-06T11:47:01.858Z,27.64
2018-08-06T11:52:05.413Z,27.99
2018-08-06T11:57:09.009Z,30.32
2018-08-06T12:02:12.543Z,44.42
2018-08-06T12:07:16.160Z,42.70
2018-08-06T12:12:20.272Z,42.53
2018-08-06T12:17:24.403Z,46.73
2018-08-06T12:22:28.070Z,45.81
2018-08-06T12:27:31.643Z,42.20
2018-08-06T12:32:35.242Z,39.79
2018-08-06T12:37:38.970Z,38.34
2018-08-06T12:42:42.830Z,37.36
2018-08-06T12:47:46.859Z,37.33
2018-08-06T12:52:50.559Z,37.50
2018-08-06T12:57:54.109Z,37.09
2018-08-06T13:02:58.672Z,36.69
2018-08-06T13:08:02.215Z,36.02
2018-08-06T13:13:05.952Z,35.58
2018-08-06T13:18:09.634Z,35.27
2018-08-06T13:23:13.598Z,34.68
2018-08-06T13:28:17.245Z,33.60
2018-08-06T13:33:20.761Z,32.62
2018-08-06T13:38:24.325Z,31.88
2018-08-06T13:43:28.019Z,31.67
2018-08-06T13:48:31.563Z,31.52
2018-08-06T13:53:35.075Z,31.50
2018-08-06T13:58:38.662Z,31.44
2018-08-06T14:19:50.124Z,31.04
2018-08-06T14:24:53.953Z,31.13
2018-08-06T14:29:57.598Z,31.21
2018-08-06T14:35:01.443Z,31.21
2018-08-06T14:40:07.933Z,31.45
2018-08-06T14:45:11.965Z,31.31
2018-08-06T14:50:16.198Z,31.21
2018-08-06T14:55:19.845Z,31.29
2018-08-06T15:00:23.761Z,31.37
2018-08-06T15:05:27.493Z,31.42
2018-08-06T15:10:31.577Z,31.66
2018-08-06T15:15:35.320Z,32.06
2018-08-06T15:20:38.980Z,32.31
2018-08-06T15:25:43.086Z,32.24
2018-08-06T15:30:46.789Z,32.58
2018-08-06T15:35:50.306Z,32.89
2018-08-06T15:40:54.949Z,33.93
2018-08-06T15:45:58.522Z,34.54
2018-08-06T15:51:02.079Z,35.24
2018-08-06T15:56:07.214Z,35.60
2018-08-06T16:01:11.810Z,35.89
2018-08-06T16:06:15.707Z,36.74
2018-08-06T16:11:19.278Z,40.78
2018-08-06T16:16:22.861Z,44.60
2018-08-06T16:21:26.843Z,46.48
2018-08-06T16:26:30.519Z,48.06
2018-08-06T16:31:34.353Z,44.71
2018-08-06T16:36:37.837Z,39.63
2018-08-06T16:41:41.542Z,37.92
2018-08-06T16:46:45.265Z,38.03
2018-08-06T16:51:49.135Z,37.89
2018-08-06T16:56:52.849Z,34.26
2018-08-06T17:01:56.684Z,33.02
2018-08-06T17:07:00.416Z,32.69
2018-08-06T17:12:04.039Z,32.24
2018-08-06T17:17:07.633Z,32.04
2018-08-06T17:22:11.369Z,31.97
2018-08-06T17:27:15.886Z,32.32
2018-08-06T17:32:20.107Z,32.35
2018-08-06T17:37:24.281Z,32.18
2018-08-06T17:42:28.745Z,32.01
2018-08-06T17:47:32.871Z,31.66
2018-08-06T17:52:36.767Z,31.01
2018-08-06T17:57:41.279Z,30.36
2018-08-06T18:02:45.466Z,29.96
2018-08-06T18:07:49.838Z,29.61
2018-08-06T18:12:53.558Z,29.37
2018-08-06T18:17:57.132Z,29.05
2018-08-06T18:23:01.508Z,29.16
2018-08-06T18:28:05.421Z,29.01
2018-08-06T18:33:10.633Z,28.72
2018-08-06T18:38:14.603Z,28.52
2018-08-06T18:43:18.652Z,28.32
2018-08-06T18:48:22.593Z,27.99
2018-08-06T18:53:26.331Z,27.79
2018-08-06T18:58:30.742Z,27.63
2018-08-06T19:03:34.922Z,27.49
2018-08-06T19:08:39.026Z,27.35
2018-08-06T19:13:47.757Z,27.15
2018-08-06T19:18:56.823Z,26.98
2018-08-06T19:24:09.111Z,26.84
2018-08-06T19:29:12.786Z,26.71
2018-08-06T19:34:17.085Z,26.62
2018-08-06T19:39:20.689Z,26.43
2018-08-06T19:44:24.572Z,26.22
2018-08-06T19:49:33.255Z,26.08
2018-08-06T19:54:37.010Z,25.93
2018-08-06T19:59:40.810Z,25.84
2018-08-06T20:04:44.423Z,25.77
2018-08-06T20:09:47.976Z,25.74
2018-08-06T20:14:51.562Z,25.64
2018-08-06T20:19:55.093Z,25.52
2018-08-06T20:24:58.630Z,25.40
2018-08-06T20:30:03.537Z,25.28
2018-08-06T20:35:10.088Z,25.17
2018-08-06T20:40:13.710Z,25.07
2018-08-06T20:45:18.971Z,24.99
2018-08-06T20:50:23.604Z,24.87
2018-08-06T20:55:28.337Z,24.85
2018-08-06T21:00:31.931Z,24.78
2018-08-06T21:05:35.585Z,24.67
2018-08-06T21:10:39.162Z,24.61
2018-08-06T21:15:43.452Z,24.59
2018-08-06T21:20:47.010Z,24.55
2018-08-06T21:25:50.558Z,24.56
2018-08-06T21:30:54.140Z,24.60
2018-08-06T21:35:58.019Z,24.49
2018-08-06T21:41:02.093Z,24.35
2018-08-06T21:46:05.731Z,24.31
2018-08-06T21:51:10.268Z,24.30
2018-08-06T21:56:14.349Z,24.29
2018-08-06T22:01:18.620Z,24.31
2018-08-06T22:06:22.355Z,24.32
2018-08-06T22:11:26.465Z,24.25
2018-08-06T22:16:30.147Z,24.22
2018-08-06T22:21:34.296Z,24.19
2018-08-06T22:26:38.697Z,24.19
2018-08-06T22:31:42.552Z,24.23
2018-08-06T22:36:47.346Z,24.21
2018-08-06T22:41:52.189Z,24.17
2018-08-06T22:46:56.627Z,24.10
2018-08-06T22:52:00.267Z,24.06
2018-08-06T22:57:04.284Z,23.83
2018-08-06T23:02:08.486Z,23.53
2018-08-06T23:07:12.355Z,23.47
2018-08-06T23:12:16.642Z,23.46
2018-08-06T23:17:20.822Z,23.31
2018-08-06T23:22:25.105Z,23.31
2018-08-06T23:27:29.438Z,23.25
2018-08-06T23:32:33.686Z,23.15
2018-08-06T23:37:37.597Z,23.09
2018-08-06T23:42:42.318Z,22.98
2018-08-06T23:47:46.232Z,22.92
2018-08-06T23:52:51.506Z,22.89
2018-08-06T23:57:56.412Z,22.87
